sensor_id;sensor_type;location;lat;lon;timestamp;pressure;altitude;pressure_sealevel;temperature;humidity
35908;BME280;22003;50.320;8.054;2023-02-22T05:01:15;99541.25;;;2.06;100.00
35908;BME280;22003;50.320;8.054;2023-02-22T05:03:41;99524.44;;;2.11;100.00
35908;BME280;22003;50.320;8.054;2023-02-22T05:06:07;99535.09;;;2.07;100.00
35908;BME280;22003;50.320;8.054;2023-02-22T05:08:33;99537.56;;;2.10;100.00
35908;BME280;22003;50.320;8.054;2023-02-22T05:10:58;99537.13;;;2.19;100.00
35908;BME280;22003;50.320;8.054;2023-02-22T05:13:24;99523.66;;;2.09;100.00
35908;BME280;22003;50.320;8.054;2023-02-22T05:15:49;99524.69;;;2.05;100.00
35908;BME280;22003;50.320;8.054;2023-02-22T05:18:14;99509.75;;;1.90;100.00
35908;BME280;22003;50.320;8.054;2023-02-22T05:20:40;99520.69;;;1.98;100.00
35908;BME280;22003;50.320;8.054;2023-02-22T05:23:05;99535.94;;;2.07;100.00
35908;BME280;22003;50.320;8.054;2023-02-22T05:25:31;99528.09;;;2.07;100.00
35908;BME280;22003;50.320;8.054;2023-02-22T05:28:01;99527.59;;;1.99;100.00
35908;BME280;22003;50.320;8.054;2023-02-22T05:30:29;99525.78;;;2.01;100.00
35908;BME280;22003;50.320;8.054;2023-02-22T05:32:55;99518.88;;;2.00;100.00
35908;BME280;22003;50.320;8.054;2023-02-22T05:35:21;99530.13;;;2.20;100.00
35908;BME280;22003;50.320;8.054;2023-02-22T05:37:47;99512.78;;;2.00;100.00
35908;BME280;22003;50.320;8.054;2023-02-22T05:40:16;99518.16;;;1.97;100.00
35908;BME280;22003;50.320;8.054;2023-02-22T05:42:42;99536.59;;;2.13;100.00
35908;BME280;22003;50.320;8.054;2023-02-22T05:45:08;99506.28;;;2.08;100.00
35908;BME280;22003;50.320;8.054;2023-02-22T05:47:33;99497.69;;;2.06;100.00
35908;BME280;22003;50.320;8.054;2023-02-22T05:49:58;99524.00;;;2.02;100.00
35908;BME280;22003;50.320;8.054;2023-02-22T05:52:24;99518.78;;;2.02;100.00
35908;BME280;22003;50.320;8.054;2023-02-22T05:54:49;99503.19;;;2.00;100.00
35908;BME280;22003;50.320;8.054;2023-02-22T05:57:14;99527.69;;;2.17;100.00
35908;BME280;22003;50.320;8.054;2023-02-22T05:59:40;99502.69;;;1.92;100.00
35908;BME280;22003;50.320;8.054;2023-02-22T06:02:05;99495.78;;;1.91;100.00
35908;BME280;22003;50.320;8.054;2023-02-22T06:04:30;99518.34;;;2.30;100.00
35908;BME280;22003;50.320;8.054;2023-02-22T06:06:56;99508.84;;;1.91;100.00
35908;BME280;22003;50.320;8.054;2023-02-22T06:09:21;99514.44;;;1.83;100.00
35908;BME280;22003;50.320;8.054;2023-02-22T06:11:46;99507.84;;;1.94;100.00
35908;BME280;22003;50.320;8.054;2023-02-22T06:14:11;99526.06;;;2.14;100.00
35908;BME280;22003;50.320;8.054;2023-02-22T06:16:36;99508.41;;;2.00;100.00
35908;BME280;22003;50.320;8.054;2023-02-22T06:19:02;99520.28;;;2.07;100.00
35908;BME280;22003;50.320;8.054;2023-02-22T06:21:27;99521.97;;;2.08;100.00
35908;BME280;22003;50.320;8.054;2023-02-22T06:23:53;99508.47;;;1.99;100.00
35908;BME280;22003;50.320;8.054;2023-02-22T06:26:19;99506.50;;;2.04;100.00
35908;BME280;22003;50.320;8.054;2023-02-22T06:28:47;99522.63;;;1.95;100.00
35908;BME280;22003;50.320;8.054;2023-02-22T06:31:12;99513.19;;;2.09;100.00
35908;BME280;22003;50.320;8.054;2023-02-22T06:33:37;99528.03;;;2.28;100.00
35908;BME280;22003;50.320;8.054;2023-02-22T06:36:03;99533.72;;;2.36;100.00
35908;BME280;22003;50.320;8.054;2023-02-22T06:38:29;99511.44;;;1.91;100.00
35908;BME280;22003;50.320;8.054;2023-02-22T06:40:55;99530.22;;;1.99;100.00
35908;BME280;22003;50.320;8.054;2023-02-22T06:43:21;99526.47;;;1.86;100.00
35908;BME280;22003;50.320;8.054;2023-02-22T06:45:48;99533.84;;;1.97;100.00
35908;BME280;22003;50.320;8.054;2023-02-22T06:48:14;99522.94;;;1.87;100.00
35908;BME280;22003;50.320;8.054;2023-02-22T06:50:39;99529.53;;;1.96;100.00
35908;BME280;22003;50.320;8.054;2023-02-22T06:53:04;99519.06;;;1.96;100.00
35908;BME280;22003;50.320;8.054;2023-02-22T06:55:31;99542.66;;;2.13;100.00
35908;BME280;22003;50.320;8.054;2023-02-22T06:57:58;99536.22;;;2.20;100.00
35908;BME280;22003;50.320;8.054;2023-02-22T07:00:25;99526.47;;;2.24;100.00
35908;BME280;22003;50.320;8.054;2023-02-22T07:02:53;99544.78;;;2.24;100.00
35908;BME280;22003;50.320;8.054;2023-02-22T07:05:20;99541.91;;;2.47;100.00
35908;BME280;22003;50.320;8.054;2023-02-22T07:07:47;99548.53;;;2.72;100.00
35908;BME280;22003;50.320;8.054;2023-02-22T07:10:25;99539.00;;;2.53;100.00
35908;BME280;22003;50.320;8.054;2023-02-22T07:12:50;99510.66;;;2.44;100.00
35908;BME280;22003;50.320;8.054;2023-02-22T07:15:24;99542.56;;;2.70;100.00
35908;BME280;22003;50.320;8.054;2023-02-22T07:17:50;99546.00;;;2.70;100.00
35908;BME280;22003;50.320;8.054;2023-02-22T07:20:17;99536.56;;;2.68;100.00
35908;BME280;22003;50.320;8.054;2023-02-22T07:22:45;99547.66;;;2.90;100.00
35908;BME280;22003;50.320;8.054;2023-02-22T07:25:10;99544.88;;;2.93;100.00
35908;BME280;22003;50.320;8.054;2023-02-22T07:27:37;99541.63;;;3.05;100.00
35908;BME280;22003;50.320;8.054;2023-02-22T07:30:04;99526.09;;;3.02;100.00
35908;BME280;22003;50.320;8.054;2023-02-22T07:32:30;99540.19;;;3.17;100.00
35908;BME280;22003;50.320;8.054;2023-02-22T07:34:55;99536.31;;;3.24;100.00
35908;BME280;22003;50.320;8.054;2023-02-22T07:37:20;99541.72;;;3.21;100.00
35908;BME280;22003;50.320;8.054;2023-02-22T07:39:46;99520.16;;;2.99;100.00
35908;BME280;22003;50.320;8.054;2023-02-22T07:42:11;99539.19;;;3.20;100.00
35908;BME280;22003;50.320;8.054;2023-02-22T07:44:37;99518.78;;;3.09;100.00
35908;BME280;22003;50.320;8.054;2023-02-22T07:47:02;99535.69;;;3.36;100.00
35908;BME280;22003;50.320;8.054;2023-02-22T07:49:27;99526.19;;;3.18;100.00
35908;BME280;22003;50.320;8.054;2023-02-22T07:51:53;99529.81;;;3.49;100.00
35908;BME280;22003;50.320;8.054;2023-02-22T07:54:18;99538.78;;;3.44;100.00
35908;BME280;22003;50.320;8.054;2023-02-22T07:56:47;99541.63;;;3.40;100.00
35908;BME280;22003;50.320;8.054;2023-02-22T07:59:13;99527.72;;;3.55;100.00
35908;BME280;22003;50.320;8.054;2023-02-22T08:01:39;99528.00;;;3.66;100.00
35908;BME280;22003;50.320;8.054;2023-02-22T08:04:05;99537.75;;;3.47;100.00
35908;BME280;22003;50.320;8.054;2023-02-22T08:06:30;99546.34;;;3.66;100.00
35908;BME280;22003;50.320;8.054;2023-02-22T08:08:56;99553.28;;;3.67;100.00
35908;BME280;22003;50.320;8.054;2023-02-22T08:11:21;99525.31;;;3.35;100.00
35908;BME280;22003;50.320;8.054;2023-02-22T08:13:48;99486.03;;;3.35;100.00
35908;BME280;22003;50.320;8.054;2023-02-22T08:16:13;99548.66;;;3.73;100.00
35908;BME280;22003;50.320;8.054;2023-02-22T08:18:38;99549.25;;;3.78;100.00
35908;BME280;22003;50.320;8.054;2023-02-22T08:21:05;99517.03;;;3.76;100.00
35908;BME280;22003;50.320;8.054;2023-02-22T08:23:30;99524.16;;;3.89;100.00
35908;BME280;22003;50.320;8.054;2023-02-22T08:26:03;99536.34;;;4.06;100.00
35908;BME280;22003;50.320;8.054;2023-02-22T08:28:29;99509.59;;;4.00;100.00
35908;BME280;22003;50.320;8.054;2023-02-22T08:30:54;99526.53;;;4.10;100.00
35908;BME280;22003;50.320;8.054;2023-02-22T08:33:19;99525.03;;;4.06;100.00
35908;BME280;22003;50.320;8.054;2023-02-22T08:35:46;99528.56;;;4.20;100.00
35908;BME280;22003;50.320;8.054;2023-02-22T08:38:25;99528.06;;;4.14;100.00
35908;BME280;22003;50.320;8.054;2023-02-22T08:40:51;99515.53;;;4.19;100.00
35908;BME280;22003;50.320;8.054;2023-02-22T08:43:18;99519.41;;;4.43;100.00
35908;BME280;22003;50.320;8.054;2023-02-22T08:45:44;99523.16;;;4.39;100.00
35908;BME280;22003;50.320;8.054;2023-02-22T08:48:10;99501.56;;;3.87;100.00
35908;BME280;22003;50.320;8.054;2023-02-22T08:50:35;99512.06;;;4.18;100.00
35908;BME280;22003;50.320;8.054;2023-02-22T08:53:04;99506.56;;;4.07;100.00
35908;BME280;22003;50.320;8.054;2023-02-22T08:55:32;99517.06;;;4.39;100.00
35908;BME280;22003;50.320;8.054;2023-02-22T08:57:59;99521.06;;;4.60;100.00
35908;BME280;22003;50.320;8.054;2023-02-22T09:00:27;99518.34;;;4.78;100.00
35908;BME280;22003;50.320;8.054;2023-02-22T09:02:54;99506.63;;;4.53;100.00
35908;BME280;22003;50.320;8.054;2023-02-22T09:05:20;99513.38;;;4.57;100.00
35908;BME280;22003;50.320;8.054;2023-02-22T09:07:46;99511.38;;;4.76;100.00
35908;BME280;22003;50.320;8.054;2023-02-22T09:10:22;99508.44;;;4.97;100.00
35908;BME280;22003;50.320;8.054;2023-02-22T09:12:52;99497.69;;;4.71;100.00
35908;BME280;22003;50.320;8.054;2023-02-22T09:15:20;99492.56;;;4.84;100.00
35908;BME280;22003;50.320;8.054;2023-02-22T09:17:45;99499.31;;;4.88;100.00
35908;BME280;22003;50.320;8.054;2023-02-22T09:20:11;99499.03;;;4.79;100.00
35908;BME280;22003;50.320;8.054;2023-02-22T09:22:38;99500.31;;;5.01;100.00
35908;BME280;22003;50.320;8.054;2023-02-22T09:25:04;99501.00;;;5.19;100.00
35908;BME280;22003;50.320;8.054;2023-02-22T09:27:30;99484.19;;;5.08;100.00
35908;BME280;22003;50.320;8.054;2023-02-22T09:29:55;99501.94;;;5.18;100.00
35908;BME280;22003;50.320;8.054;2023-02-22T09:32:22;99472.84;;;5.07;100.00
35908;BME280;22003;50.320;8.054;2023-02-22T09:34:48;99508.69;;;5.37;100.00
35908;BME280;22003;50.320;8.054;2023-02-22T09:37:16;99507.03;;;5.50;100.00
35908;BME280;22003;50.320;8.054;2023-02-22T09:39:42;99504.09;;;5.54;100.00
35908;BME280;22003;50.320;8.054;2023-02-22T09:44:48;99468.56;;;5.35;100.00
35908;BME280;22003;50.320;8.054;2023-02-22T09:47:20;99487.31;;;5.28;100.00
35908;BME280;22003;50.320;8.054;2023-02-22T09:49:56;99463.53;;;5.16;100.00
35908;BME280;22003;50.320;8.054;2023-02-22T09:52:29;99486.19;;;5.47;100.00
35908;BME280;22003;50.320;8.054;2023-02-22T09:55:07;99491.31;;;5.06;100.00
35908;BME280;22003;50.320;8.054;2023-02-22T09:57:37;99478.31;;;5.47;100.00
35908;BME280;22003;50.320;8.054;2023-02-22T10:02:57;99482.44;;;5.37;100.00
35908;BME280;22003;50.320;8.054;2023-02-22T10:05:30;99483.00;;;5.42;100.00
35908;BME280;22003;50.320;8.054;2023-02-22T10:08:03;99472.13;;;5.34;100.00
35908;BME280;22003;50.320;8.054;2023-02-22T10:10:33;99474.25;;;5.84;100.00
35908;BME280;22003;50.320;8.054;2023-02-22T10:13:21;99474.81;;;5.18;100.00
35908;BME280;22003;50.320;8.054;2023-02-22T10:18:45;99442.63;;;5.43;100.00
35908;BME280;22003;50.320;8.054;2023-02-22T10:21:40;99448.53;;;4.89;100.00
35908;BME280;22003;50.320;8.054;2023-02-22T10:24:28;99456.34;;;5.19;100.00
35908;BME280;22003;50.320;8.054;2023-02-22T10:26:57;99445.66;;;5.51;100.00
35908;BME280;22003;50.320;8.054;2023-02-22T10:31:57;99465.34;;;5.72;100.00
35908;BME280;22003;50.320;8.054;2023-02-22T10:34:26;99461.75;;;6.02;100.00
35908;BME280;22003;50.320;8.054;2023-02-22T10:37:14;99465.38;;;6.14;100.00
35908;BME280;22003;50.320;8.054;2023-02-22T10:39:43;99455.41;;;6.46;100.00
35908;BME280;22003;50.320;8.054;2023-02-22T10:42:09;99444.53;;;6.38;100.00
35908;BME280;22003;50.320;8.054;2023-02-22T10:44:36;99449.50;;;6.55;100.00
35908;BME280;22003;50.320;8.054;2023-02-22T10:47:04;99434.09;;;6.76;100.00
35908;BME280;22003;50.320;8.054;2023-02-22T10:49:50;99441.00;;;6.64;100.00
35908;BME280;22003;50.320;8.054;2023-02-22T10:52:24;99449.38;;;6.96;100.00
35908;BME280;22003;50.320;8.054;2023-02-22T10:54:50;99454.66;;;7.22;100.00
35908;BME280;22003;50.320;8.054;2023-02-22T10:57:20;99450.53;;;7.05;100.00
35908;BME280;22003;50.320;8.054;2023-02-22T10:59:46;99440.44;;;7.50;100.00
35908;BME280;22003;50.320;8.054;2023-02-22T11:02:20;99434.69;;;7.68;100.00
35908;BME280;22003;50.320;8.054;2023-02-22T11:04:56;99441.06;;;7.40;98.38
35908;BME280;22003;50.320;8.054;2023-02-22T11:14:51;99432.25;;;7.65;98.33
35908;BME280;22003;50.320;8.054;2023-02-22T11:17:25;99405.03;;;7.78;97.50
35908;BME280;22003;50.320;8.054;2023-02-22T11:19:52;99427.41;;;7.72;97.12
35908;BME280;22003;50.320;8.054;2023-02-22T11:22:26;99425.78;;;7.46;99.92
35908;BME280;22003;50.320;8.054;2023-02-22T11:24:57;99425.94;;;7.68;99.18
35908;BME280;22003;50.320;8.054;2023-02-22T11:27:44;99413.09;;;7.87;97.90
35908;BME280;22003;50.320;8.054;2023-02-22T11:30:31;99407.91;;;7.99;97.70
35908;BME280;22003;50.320;8.054;2023-02-22T11:36:00;99391.63;;;8.05;96.88
35908;BME280;22003;50.320;8.054;2023-02-22T11:38:33;99373.09;;;8.41;95.21
35908;BME280;22003;50.320;8.054;2023-02-22T11:41:17;99392.38;;;7.70;99.35
35908;BME280;22003;50.320;8.054;2023-02-22T11:43:46;99395.25;;;7.67;100.00
35908;BME280;22003;50.320;8.054;2023-02-22T11:46:16;99384.88;;;7.77;99.34
35908;BME280;22003;50.320;8.054;2023-02-22T11:48:55;99386.50;;;7.66;100.00
35908;BME280;22003;50.320;8.054;2023-02-22T11:51:29;99386.94;;;7.11;100.00
35908;BME280;22003;50.320;8.054;2023-02-22T11:54:05;99392.47;;;7.32;100.00
35908;BME280;22003;50.320;8.054;2023-02-22T11:56:39;99387.91;;;7.47;100.00
35908;BME280;22003;50.320;8.054;2023-02-22T12:02:21;99398.81;;;7.17;100.00
35908;BME280;22003;50.320;8.054;2023-02-22T12:05:04;99399.25;;;7.23;100.00
35908;BME280;22003;50.320;8.054;2023-02-22T12:07:43;99383.34;;;6.86;100.00
35908;BME280;22003;50.320;8.054;2023-02-22T12:10:33;99399.88;;;6.88;100.00
35908;BME280;22003;50.320;8.054;2023-02-22T12:21:02;99386.16;;;6.58;100.00
35908;BME280;22003;50.320;8.054;2023-02-22T12:23:53;99385.19;;;6.59;100.00
35908;BME280;22003;50.320;8.054;2023-02-22T12:26:25;99386.16;;;6.71;100.00
35908;BME280;22003;50.320;8.054;2023-02-22T12:28:57;99368.47;;;6.85;100.00
35908;BME280;22003;50.320;8.054;2023-02-22T12:34:10;99376.28;;;6.74;100.00
35908;BME280;22003;50.320;8.054;2023-02-22T12:36:50;99369.75;;;6.80;100.00
35908;BME280;22003;50.320;8.054;2023-02-22T12:41:53;99365.03;;;6.72;100.00
35908;BME280;22003;50.320;8.054;2023-02-22T12:44:24;99351.84;;;6.85;100.00
35908;BME280;22003;50.320;8.054;2023-02-22T12:46:54;99344.34;;;6.92;100.00
35908;BME280;22003;50.320;8.054;2023-02-22T12:49:43;99358.34;;;7.18;100.00
35908;BME280;22003;50.320;8.054;2023-02-22T12:52:34;99356.88;;;7.87;100.00
35908;BME280;22003;50.320;8.054;2023-02-22T12:55:10;99349.69;;;7.65;100.00
35908;BME280;22003;50.320;8.054;2023-02-22T13:00:25;99343.81;;;7.85;100.00
35908;BME280;22003;50.320;8.054;2023-02-22T13:05:48;99325.44;;;8.89;100.00
35908;BME280;22003;50.320;8.054;2023-02-22T13:08:24;99339.84;;;9.08;98.78
35908;BME280;22003;50.320;8.054;2023-02-22T13:10:58;99304.75;;;9.28;98.37
35908;BME280;22003;50.320;8.054;2023-02-22T13:13:57;99319.59;;;9.63;95.79
35908;BME280;22003;50.320;8.054;2023-02-22T13:16:54;99310.81;;;10.05;96.03
35908;BME280;22003;50.320;8.054;2023-02-22T13:19:43;99321.91;;;9.99;93.65
35908;BME280;22003;50.320;8.054;2023-02-22T13:22:20;99321.34;;;9.85;94.80
35908;BME280;22003;50.320;8.054;2023-02-22T13:24:56;99321.50;;;9.72;95.46
35908;BME280;22003;50.320;8.054;2023-02-22T13:27:28;99318.69;;;9.85;94.28
35908;BME280;22003;50.320;8.054;2023-02-22T13:29:58;99321.94;;;9.77;95.41
35908;BME280;22003;50.320;8.054;2023-02-22T13:32:38;99315.03;;;9.53;96.82
35908;BME280;22003;50.320;8.054;2023-02-22T13:35:36;99318.13;;;9.70;95.76
35908;BME280;22003;50.320;8.054;2023-02-22T13:38:17;99284.09;;;9.22;98.24
35908;BME280;22003;50.320;8.054;2023-02-22T13:46:56;99304.28;;;9.34;100.00
35908;BME280;22003;50.320;8.054;2023-02-22T13:52:19;99290.06;;;9.90;99.37
35908;BME280;22003;50.320;8.054;2023-02-22T13:54:50;99296.25;;;10.32;95.75
35908;BME280;22003;50.320;8.054;2023-02-22T13:57:24;99270.94;;;10.39;95.61
35908;BME280;22003;50.320;8.054;2023-02-22T14:03:40;99286.38;;;10.34;92.80
35908;BME280;22003;50.320;8.054;2023-02-22T14:05:54;99281.84;;;10.46;95.47
35908;BME280;22003;50.320;8.054;2023-02-22T14:10:49;99280.78;;;10.79;96.58
35908;BME280;22003;50.320;8.054;2023-02-22T14:13:20;99260.91;;;10.94;95.06
35908;BME280;22003;50.320;8.054;2023-02-22T14:18:36;99283.59;;;10.87;94.45
35908;BME280;22003;50.320;8.054;2023-02-22T14:21:11;99260.22;;;11.02;92.41
35908;BME280;22003;50.320;8.054;2023-02-22T14:26:13;99273.72;;;10.99;93.92
35908;BME280;22003;50.320;8.054;2023-02-22T14:28:41;99282.06;;;10.84;92.41
35908;BME280;22003;50.320;8.054;2023-02-22T14:31:12;99277.84;;;10.82;94.88
35908;BME280;22003;50.320;8.054;2023-02-22T14:34:07;99274.31;;;11.02;92.85
35908;BME280;22003;50.320;8.054;2023-02-22T14:36:47;99268.94;;;10.83;94.51
35908;BME280;22003;50.320;8.054;2023-02-22T14:39:30;99272.28;;;10.85;92.86
35908;BME280;22003;50.320;8.054;2023-02-22T14:42:03;99257.47;;;10.73;92.92
35908;BME280;22003;50.320;8.054;2023-02-22T14:44:37;99273.66;;;10.28;95.86
35908;BME280;22003;50.320;8.054;2023-02-22T14:47:06;99269.25;;;10.38;96.11
35908;BME280;22003;50.320;8.054;2023-02-22T14:49:35;99273.38;;;10.31;96.93
35908;BME280;22003;50.320;8.054;2023-02-22T14:52:10;99270.09;;;10.90;95.09
35908;BME280;22003;50.320;8.054;2023-02-22T14:54:51;99262.22;;;10.79;94.16
35908;BME280;22003;50.320;8.054;2023-02-22T14:57:44;99261.50;;;11.07;93.21
35908;BME280;22003;50.320;8.054;2023-02-22T15:00:37;99265.75;;;10.89;94.58
35908;BME280;22003;50.320;8.054;2023-02-22T15:03:04;99240.88;;;11.11;92.76
35908;BME280;22003;50.320;8.054;2023-02-22T15:05:35;99242.09;;;10.67;95.55
35908;BME280;22003;50.320;8.054;2023-02-22T15:08:05;99250.91;;;10.46;97.68
35908;BME280;22003;50.320;8.054;2023-02-22T15:13:22;99252.50;;;10.58;98.32
35908;BME280;22003;50.320;8.054;2023-02-22T15:15:58;99254.91;;;10.62;97.49
35908;BME280;22003;50.320;8.054;2023-02-22T15:18:57;99260.75;;;10.65;95.76
35908;BME280;22003;50.320;8.054;2023-02-22T15:21:26;99266.72;;;10.57;98.08
35908;BME280;22003;50.320;8.054;2023-02-22T15:24:03;99261.56;;;10.56;97.81
35908;BME280;22003;50.320;8.054;2023-02-22T15:26:34;99255.16;;;10.89;95.43
35908;BME280;22003;50.320;8.054;2023-02-22T15:29:09;99270.31;;;10.77;95.00
35908;BME280;22003;50.320;8.054;2023-02-22T15:31:38;99251.44;;;10.40;97.35
35908;BME280;22003;50.320;8.054;2023-02-22T15:34:23;99252.78;;;10.35;98.26
35908;BME280;22003;50.320;8.054;2023-02-22T15:36:51;99262.28;;;10.37;99.07
35908;BME280;22003;50.320;8.054;2023-02-22T15:39:30;99269.97;;;10.40;98.28
35908;BME280;22003;50.320;8.054;2023-02-22T15:44:36;99263.94;;;10.38;98.61
35908;BME280;22003;50.320;8.054;2023-02-22T15:47:02;99256.00;;;10.38;98.60
35908;BME280;22003;50.320;8.054;2023-02-22T15:49:28;99250.53;;;10.30;99.26
35908;BME280;22003;50.320;8.054;2023-02-22T15:52:04;99263.31;;;10.25;100.00
35908;BME280;22003;50.320;8.054;2023-02-22T15:54:40;99253.97;;;10.10;100.00
35908;BME280;22003;50.320;8.054;2023-02-22T15:57:06;99266.13;;;10.12;100.00
35908;BME280;22003;50.320;8.054;2023-02-22T15:59:40;99251.59;;;10.07;100.00
35908;BME280;22003;50.320;8.054;2023-02-22T16:02:29;99246.53;;;9.83;100.00
35908;BME280;22003;50.320;8.054;2023-02-22T16:05:08;99263.22;;;9.94;100.00
35908;BME280;22003;50.320;8.054;2023-02-22T16:07:38;99273.66;;;9.64;100.00
35908;BME280;22003;50.320;8.054;2023-02-22T16:10:19;99254.50;;;9.39;100.00
35908;BME280;22003;50.320;8.054;2023-02-22T16:12:45;99265.94;;;9.29;100.00
35908;BME280;22003;50.320;8.054;2023-02-22T16:15:18;99264.97;;;9.30;100.00
35908;BME280;22003;50.320;8.054;2023-02-22T16:17:44;99267.03;;;9.26;100.00
35908;BME280;22003;50.320;8.054;2023-02-22T16:22:36;99267.31;;;9.12;100.00
35908;BME280;22003;50.320;8.054;2023-02-22T16:27:54;99275.72;;;9.06;100.00
35908;BME280;22003;50.320;8.054;2023-02-22T16:30:26;99277.53;;;9.05;100.00
35908;BME280;22003;50.320;8.054;2023-02-22T16:32:53;99274.84;;;8.83;100.00
35908;BME280;22003;50.320;8.054;2023-02-22T16:35:19;99256.00;;;8.54;100.00
35908;BME280;22003;50.320;8.054;2023-02-22T16:37:49;99282.19;;;8.68;100.00
35908;BME280;22003;50.320;8.054;2023-02-22T16:40:23;99279.69;;;8.89;100.00
35908;BME280;22003;50.320;8.054;2023-02-22T16:42:49;99265.00;;;8.51;100.00
35908;BME280;22003;50.320;8.054;2023-02-22T16:45:18;99284.94;;;8.44;100.00
35908;BME280;22003;50.320;8.054;2023-02-22T16:47:44;99276.47;;;8.28;100.00
35908;BME280;22003;50.320;8.054;2023-02-22T16:50:09;99276.28;;;8.07;100.00
35908;BME280;22003;50.320;8.054;2023-02-22T16:52:38;99267.25;;;7.98;100.00
35908;BME280;22003;50.320;8.054;2023-02-22T16:55:03;99273.91;;;7.80;100.00
35908;BME280;22003;50.320;8.054;2023-02-22T16:57:30;99264.72;;;7.61;100.00
35908;BME280;22003;50.320;8.054;2023-02-22T16:59:56;99267.34;;;7.61;100.00
35908;BME280;22003;50.320;8.054;2023-02-22T17:02:21;99280.41;;;7.63;100.00
35908;BME280;22003;50.320;8.054;2023-02-22T17:04:46;99269.53;;;7.67;100.00
35908;BME280;22003;50.320;8.054;2023-02-22T17:07:20;99287.25;;;8.25;100.00
35908;BME280;22003;50.320;8.054;2023-02-22T17:09:47;99285.50;;;7.77;100.00
35908;BME280;22003;50.320;8.054;2023-02-22T17:12:15;99304.09;;;7.52;100.00
35908;BME280;22003;50.320;8.054;2023-02-22T17:14:44;99296.44;;;7.36;100.00
35908;BME280;22003;50.320;8.054;2023-02-22T17:17:11;99285.44;;;7.18;100.00
35908;BME280;22003;50.320;8.054;2023-02-22T17:19:36;99302.16;;;7.30;100.00
35908;BME280;22003;50.320;8.054;2023-02-22T17:22:02;99301.81;;;7.34;100.00
35908;BME280;22003;50.320;8.054;2023-02-22T17:24:30;99306.91;;;7.61;100.00
35908;BME280;22003;50.320;8.054;2023-02-22T17:26:58;99294.19;;;7.43;100.00
35908;BME280;22003;50.320;8.054;2023-02-22T17:29:23;99297.22;;;7.49;100.00
35908;BME280;22003;50.320;8.054;2023-02-22T17:31:49;99291.56;;;7.43;100.00
35908;BME280;22003;50.320;8.054;2023-02-22T17:34:16;99305.69;;;7.65;100.00
35908;BME280;22003;50.320;8.054;2023-02-22T17:36:41;99305.75;;;7.53;100.00
35908;BME280;22003;50.320;8.054;2023-02-22T17:39:07;99311.28;;;7.37;100.00
35908;BME280;22003;50.320;8.054;2023-02-22T17:41:34;99285.19;;;7.21;100.00
35908;BME280;22003;50.320;8.054;2023-02-22T17:44:00;99314.88;;;7.36;100.00
35908;BME280;22003;50.320;8.054;2023-02-22T17:46:25;99301.13;;;7.20;100.00
35908;BME280;22003;50.320;8.054;2023-02-22T17:48:51;99315.13;;;7.20;100.00
35908;BME280;22003;50.320;8.054;2023-02-22T17:51:19;99297.78;;;6.92;100.00
35908;BME280;22003;50.320;8.054;2023-02-22T17:53:45;99314.69;;;7.26;100.00
35908;BME280;22003;50.320;8.054;2023-02-22T17:56:12;99296.16;;;7.15;100.00
35908;BME280;22003;50.320;8.054;2023-02-22T17:58:39;99318.09;;;7.15;100.00
35908;BME280;22003;50.320;8.054;2023-02-22T18:01:05;99312.66;;;7.06;100.00
35908;BME280;22003;50.320;8.054;2023-02-22T18:03:30;99326.91;;;7.40;100.00
35908;BME280;22003;50.320;8.054;2023-02-22T18:05:59;99318.66;;;7.45;100.00
35908;BME280;22003;50.320;8.054;2023-02-22T18:08:26;99303.50;;;7.35;100.00
35908;BME280;22003;50.320;8.054;2023-02-22T18:10:53;99323.19;;;7.43;100.00
35908;BME280;22003;50.320;8.054;2023-02-22T18:13:23;99316.69;;;7.35;100.00
35908;BME280;22003;50.320;8.054;2023-02-22T18:15:48;99314.28;;;7.20;100.00
35908;BME280;22003;50.320;8.054;2023-02-22T18:18:14;99320.84;;;7.14;100.00
35908;BME280;22003;50.320;8.054;2023-02-22T18:20:41;99318.00;;;7.04;100.00
35908;BME280;22003;50.320;8.054;2023-02-22T18:23:12;99314.75;;;7.01;100.00
35908;BME280;22003;50.320;8.054;2023-02-22T18:25:38;99294.88;;;6.84;100.00
35908;BME280;22003;50.320;8.054;2023-02-22T18:28:05;99316.63;;;6.99;100.00
35908;BME280;22003;50.320;8.054;2023-02-22T18:30:35;99313.09;;;7.00;100.00
35908;BME280;22003;50.320;8.054;2023-02-22T18:33:01;99312.56;;;6.95;100.00
35908;BME280;22003;50.320;8.054;2023-02-22T18:35:27;99311.09;;;6.91;100.00
35908;BME280;22003;50.320;8.054;2023-02-22T18:37:53;99318.34;;;7.00;100.00
35908;BME280;22003;50.320;8.054;2023-02-22T18:40:18;99315.78;;;6.98;100.00
35908;BME280;22003;50.320;8.054;2023-02-22T18:42:44;99317.78;;;7.07;100.00
35908;BME280;22003;50.320;8.054;2023-02-22T18:45:11;99307.28;;;6.95;100.00
35908;BME280;22003;50.320;8.054;2023-02-22T18:47:39;99319.50;;;6.96;100.00
35908;BME280;22003;50.320;8.054;2023-02-22T18:50:05;99327.59;;;6.93;100.00
35908;BME280;22003;50.320;8.054;2023-02-22T18:52:30;99305.72;;;6.79;100.00
35908;BME280;22003;50.320;8.054;2023-02-22T18:54:55;99323.50;;;6.76;100.00
35908;BME280;22003;50.320;8.054;2023-02-22T18:57:21;99306.13;;;6.60;100.00
35908;BME280;22003;50.320;8.054;2023-02-22T18:59:47;99317.06;;;6.54;100.00
35908;BME280;22003;50.320;8.054;2023-02-22T19:02:14;99313.72;;;6.52;100.00
35908;BME280;22003;50.320;8.054;2023-02-22T19:04:40;99309.06;;;6.30;100.00
35908;BME280;22003;50.320;8.054;2023-02-22T19:07:08;99316.22;;;6.28;100.00
35908;BME280;22003;50.320;8.054;2023-02-22T19:09:33;99305.38;;;6.20;100.00
35908;BME280;22003;50.320;8.054;2023-02-22T19:11:58;99306.78;;;6.51;100.00
35908;BME280;22003;50.320;8.054;2023-02-22T19:14:23;99314.69;;;6.39;100.00
35908;BME280;22003;50.320;8.054;2023-02-22T19:16:49;99300.66;;;6.38;100.00
35908;BME280;22003;50.320;8.054;2023-02-22T19:19:16;99297.94;;;6.40;100.00
35908;BME280;22003;50.320;8.054;2023-02-22T19:21:46;99315.19;;;6.44;100.00
35908;BME280;22003;50.320;8.054;2023-02-22T19:24:11;99298.00;;;6.25;100.00
35908;BME280;22003;50.320;8.054;2023-02-22T19:26:37;99311.28;;;6.24;100.00
35908;BME280;22003;50.320;8.054;2023-02-22T19:29:02;99315.28;;;6.17;100.00